Plymouth, MA

3:10 PM EST on December 02, 2016 (GMT -0500)
Bridge Gate | | Change Station

Elev 177 ft 41.88 °N, 70.60 °W | Updated 1 minute ago

Overcast
Overcast
48.0 °F
Feels Like 48 °F
N
2.5
Wind Variable Wind from WSW
Gusts 6.8 mph

Today
High -- | Low -- °F
--% Chance of Precip.
Yesterday
High -- | Low -- °F
Precip. -- in
Pressure 29.75 in
Visibility 10.0 miles
Clouds Overcast 4700 ft
Windchill 48 °F
Dew Point 35 °F
Humidity 61%
Rainfall Not available.
Snow Depth Not available.
6:52 AM 4:11 PM
Waxing Crescent, 10% visible
METAR KPYM 021952Z AUTO 27010G16KT 10SM OVC047 09/M01 A2975 RMK AO2 SLP075 T00891011
Pressure 29.75 in
Visibility 10.0 miles
Clouds Overcast 4700 ft
Windchill 48 °F
Dew Point 35 °F
Humidity 61%
Rainfall Not available.
Snow Depth Not available.
6:52 AM 4:11 PM
Waxing Crescent, 10% visible
METAR KPYM 021952Z AUTO 27010G16KT 10SM OVC047 09/M01 A2975 RMK AO2 SLP075 T00891011

10-Day Weather Forecast

Almanac

Astronomy

Dec. 02, 2016 Rise Set
Actual Time
Civil Twilight
Nautical Twilight
Astronomical Twilight
Moon
Length of Visible Light
Length of Day
Tomorrow will be .
, % of the Moon is Illuminated

Today's Extremes

State Highs State Lows

Community

WunderPhotos

Upload Photos

1,955,348 photos uploaded!

WunderBlog® & News

Nearby

Air Quality

  Air Quality AQ Index Pollutant
Not available.

Snow Depth

Station Depth Elevation

Earthquake Activity

City Distance Mag. Time & Date
Minimum magnitude displayed is 2.5.

Coastal Water Temperatures

Place Temperature

Stations

Nearby Weather Stations

Station Location Temp. Windchill Dew Point Humidity Wind Precip. Elev Updated Type
                   

Watches & Warnings

There are currently no watches in effect.